createdAt,value
2017-06-04T00:00:11.917Z,1005.51
2017-06-04T00:01:05.847Z,1005.53
2017-06-04T00:01:59.858Z,1005.52
2017-06-04T00:02:49.244Z,1005.56
2017-06-04T00:03:42.958Z,1005.55
2017-06-04T00:04:37.951Z,1005.50
2017-06-04T00:05:32.003Z,1005.55
2017-06-04T00:06:26.091Z,1005.51
2017-06-04T00:07:14.093Z,1005.55
2017-06-04T00:08:08.518Z,1005.52
2017-06-04T00:09:02.266Z,1005.52
2017-06-04T00:09:56.219Z,1005.51
2017-06-04T00:10:50.423Z,1005.54
2017-06-04T00:11:44.298Z,1005.54
2017-06-04T00:12:38.697Z,1005.54
2017-06-04T00:13:38.392Z,1005.51
2017-06-04T00:14:33.406Z,1005.56
2017-06-04T00:15:27.488Z,1005.52
2017-06-04T00:16:22.924Z,1005.54
2017-06-04T00:17:11.682Z,1005.51
2017-06-04T00:18:07.020Z,1005.55
2017-06-04T00:19:06.645Z,1005.55
2017-06-04T00:20:00.685Z,1005.52
2017-06-04T00:20:49.668Z,1005.52
2017-06-04T00:21:44.110Z,1005.57
2017-06-04T00:22:38.224Z,1005.56
2017-06-04T00:23:31.922Z,1005.59
2017-06-04T00:24:26.102Z,1005.57
2017-06-04T00:25:20.128Z,1005.59
2017-06-04T00:26:14.003Z,1005.60
2017-06-04T00:27:08.178Z,1005.58
2017-06-04T00:28:02.492Z,1005.60
2017-06-04T00:28:57.567Z,1005.59
2017-06-04T00:29:46.499Z,1005.62
2017-06-04T00:30:35.603Z,1005.60
2017-06-04T00:31:24.649Z,1005.64
2017-06-04T00:32:30.649Z,1005.59
2017-06-04T00:33:19.749Z,1005.67
2017-06-04T00:34:13.572Z,1005.68
2017-06-04T00:35:07.699Z,1005.66
2017-06-04T00:36:08.851Z,1005.66
2017-06-04T00:37:03.828Z,1005.67
2017-06-04T00:37:57.920Z,1005.65
2017-06-04T00:38:45.967Z,1005.69
2017-06-04T00:39:33.946Z,1005.63
2017-06-04T00:40:28.046Z,1005.64
2017-06-04T00:41:28.230Z,1005.63
2017-06-04T00:42:28.140Z,1005.68
2017-06-04T00:43:28.113Z,1005.64
2017-06-04T00:44:23.146Z,1005.65
2017-06-04T00:45:23.204Z,1005.63
2017-06-04T00:46:18.244Z,1005.61
2017-06-04T00:47:17.866Z,1005.64
2017-06-04T00:48:07.376Z,1005.64
2017-06-04T00:48:56.254Z,1005.64
2017-06-04T00:49:50.419Z,1005.65
2017-06-04T00:50:50.457Z,1005.70
2017-06-04T00:51:44.117Z,1005.65
2017-06-04T00:52:33.562Z,1005.67
2017-06-04T00:53:27.166Z,1005.69
2017-06-04T00:54:27.189Z,1005.66
2017-06-04T00:55:21.500Z,1005.68
2017-06-04T00:56:10.290Z,1005.66
2017-06-04T00:56:59.481Z,1005.69
2017-06-04T00:57:48.864Z,1005.69
2017-06-04T00:58:36.481Z,1005.68
2017-06-04T00:59:25.849Z,1005.69
2017-06-04T01:00:19.969Z,1005.68
2017-06-04T01:01:19.848Z,1005.71
2017-06-04T01:02:14.052Z,1005.74
2017-06-04T01:03:03.083Z,1005.74
2017-06-04T01:03:51.043Z,1005.73
2017-06-04T01:04:39.037Z,1005.74
2017-06-04T01:05:27.039Z,1005.70
2017-06-04T01:06:15.252Z,1005.70
2017-06-04T01:07:04.277Z,1005.69
2017-06-04T01:07:52.300Z,1005.70
2017-06-04T01:08:40.354Z,1005.68
2017-06-04T01:09:40.395Z,1005.68
2017-06-04T01:10:28.418Z,1005.62
2017-06-04T01:11:28.559Z,1005.63
2017-06-04T01:12:22.477Z,1005.62
2017-06-04T01:13:23.425Z,1005.67
2017-06-04T01:14:17.582Z,1005.63
2017-06-04T01:15:06.551Z,1005.69
2017-06-04T01:16:01.490Z,1005.69
2017-06-04T01:16:56.737Z,1005.70
2017-06-04T01:17:50.779Z,1005.70
2017-06-04T01:18:39.721Z,1005.69
2017-06-04T01:19:27.509Z,1005.71
2017-06-04T01:20:21.893Z,1005.71
2017-06-04T01:21:27.607Z,1005.70
2017-06-04T01:22:27.830Z,1005.65
2017-06-04T01:23:17.066Z,1005.70
2017-06-04T01:24:05.027Z,1005.68
2017-06-04T01:24:58.820Z,1005.67
2017-06-04T01:25:46.733Z,1005.67
2017-06-04T01:26:34.876Z,1005.68
2017-06-04T01:27:24.198Z,1005.67
2017-06-04T01:28:12.307Z,1005.67
2017-06-04T01:29:06.903Z,1005.66
2017-06-04T01:30:00.984Z,1005.74
2017-06-04T01:30:49.006Z,1005.75
2017-06-04T01:31:43.995Z,1005.75
2017-06-04T01:32:38.504Z,1005.75
2017-06-04T01:33:44.092Z,1005.75
2017-06-04T01:34:38.124Z,1005.77
2017-06-04T01:35:27.192Z,1005.75
2017-06-04T01:36:15.321Z,1005.80
2017-06-04T01:37:04.299Z,1005.79
2017-06-04T01:37:58.757Z,1005.80
2017-06-04T01:38:53.322Z,1005.80
2017-06-04T01:39:42.409Z,1005.85
2017-06-04T01:40:36.879Z,1005.77
2017-06-04T01:41:25.511Z,1005.80
2017-06-04T01:42:20.488Z,1005.83
2017-06-04T01:43:15.895Z,1005.88
2017-06-04T01:44:10.589Z,1005.91
2017-06-04T01:45:04.619Z,1005.90
2017-06-04T01:46:10.691Z,1005.90
2017-06-04T01:46:59.711Z,1005.98
2017-06-04T01:47:48.166Z,1005.98
2017-06-04T01:48:49.148Z,1005.94
2017-06-04T01:49:38.236Z,1005.95
2017-06-04T01:50:27.295Z,1005.95
2017-06-04T01:51:21.305Z,1005.95
2017-06-04T01:52:16.293Z,1005.96
2017-06-04T01:53:10.358Z,1005.98
2017-06-04T01:54:05.405Z,1005.98
2017-06-04T01:55:00.486Z,1005.99
2017-06-04T01:56:00.526Z,1005.98
2017-06-04T01:57:00.569Z,1005.96
2017-06-04T01:57:49.634Z,1005.97
2017-06-04T01:58:38.600Z,1006.01
2017-06-04T01:59:39.658Z,1005.98
2017-06-04T02:00:33.717Z,1005.98
2017-06-04T02:01:22.708Z,1006.03
2017-06-04T02:02:23.957Z,1006.01
2017-06-04T02:03:23.773Z,1006.05
2017-06-04T02:04:29.873Z,1006.03
2017-06-04T02:05:18.899Z,1006.04
2017-06-04T02:06:12.948Z,1006.04
2017-06-04T02:07:07.015Z,1006.06
2017-06-04T02:07:56.042Z,1006.05
2017-06-04T02:08:55.856Z,1006.05
2017-06-04T02:09:43.802Z,1006.05
2017-06-04T02:10:33.080Z,1006.08
2017-06-04T02:11:27.114Z,1006.04
2017-06-04T02:12:22.177Z,1006.04
2017-06-04T02:13:16.324Z,1006.02
2017-06-04T02:14:10.211Z,1006.06
2017-06-04T02:15:04.309Z,1006.04
2017-06-04T02:16:03.956Z,1006.00
2017-06-04T02:16:53.094Z,1006.03
2017-06-04T02:17:47.224Z,1006.03
2017-06-04T02:18:41.139Z,1006.03
2017-06-04T02:19:42.107Z,1006.05
2017-06-04T02:20:31.163Z,1006.03
2017-06-04T02:21:20.244Z,1006.06
2017-06-04T02:22:13.271Z,1006.05
2017-06-04T02:23:08.587Z,1006.07
2017-06-04T02:23:57.356Z,1006.08
2017-06-04T02:24:52.374Z,1006.02
2017-06-04T02:25:52.386Z,1006.07
2017-06-04T02:26:46.544Z,1006.08
2017-06-04T02:27:46.917Z,1006.04
2017-06-04T02:28:35.502Z,1006.05
2017-06-04T02:29:30.584Z,1006.08
2017-06-04T02:30:19.586Z,1006.01
2017-06-04T02:31:14.169Z,1005.99
2017-06-04T02:32:07.689Z,1006.06
2017-06-04T02:33:02.887Z,1006.00
2017-06-04T02:33:56.782Z,1006.03
2017-06-04T02:34:56.879Z,1006.02
2017-06-04T02:35:51.870Z,1006.05
2017-06-04T02:36:46.870Z,1006.04
2017-06-04T02:37:46.919Z,1006.05
2017-06-04T02:38:41.991Z,1006.07
2017-06-04T02:39:36.037Z,1006.08
2017-06-04T02:40:24.064Z,1006.03
2017-06-04T02:41:18.072Z,1006.03
2017-06-04T02:42:07.512Z,1006.02
2017-06-04T02:42:55.538Z,1006.00
2017-06-04T02:43:44.247Z,1006.02
2017-06-04T02:44:39.262Z,1005.98
2017-06-04T02:45:27.819Z,1006.00
2017-06-04T02:46:21.291Z,1005.99
2017-06-04T02:47:16.377Z,1005.98
2017-06-04T02:48:05.420Z,1006.02
2017-06-04T02:48:59.477Z,1005.98
2017-06-04T02:49:59.508Z,1005.99
2017-06-04T02:50:48.585Z,1005.99
2017-06-04T02:51:36.574Z,1005.99
2017-06-04T02:52:30.577Z,1005.97
2017-06-04T02:53:19.686Z,1005.97
2017-06-04T02:54:19.735Z,1005.96
2017-06-04T02:55:13.722Z,1005.99
2017-06-04T02:56:13.803Z,1005.98
2017-06-04T02:57:08.889Z,1005.96
2017-06-04T02:58:02.799Z,1005.94
2017-06-04T02:58:56.901Z,1005.96
2017-06-04T02:59:52.144Z,1005.97
2017-06-04T03:00:46.091Z,1005.95
2017-06-04T03:01:41.013Z,1005.93
2017-06-04T03:02:41.032Z,1005.96
2017-06-04T03:03:35.094Z,1006.00
2017-06-04T03:04:35.105Z,1006.01
2017-06-04T03:05:30.146Z,1006.01
2017-06-04T03:06:30.197Z,1006.03
2017-06-04T03:07:24.246Z,1006.02
2017-06-04T03:08:24.397Z,1006.06
2017-06-04T03:09:19.389Z,1006.08
2017-06-04T03:10:13.296Z,1006.13
2017-06-04T03:11:08.411Z,1006.16
2017-06-04T03:12:02.399Z,1006.11
2017-06-04T03:12:57.608Z,1006.14
2017-06-04T03:13:57.455Z,1006.12
2017-06-04T03:14:46.503Z,1006.13
2017-06-04T03:15:35.591Z,1006.12
2017-06-04T03:16:30.590Z,1006.10
2017-06-04T03:17:24.657Z,1006.09
2017-06-04T03:18:19.036Z,1006.08
2017-06-04T03:19:07.699Z,1006.10
2017-06-04T03:20:01.774Z,1006.09
2017-06-04T03:20:49.816Z,1006.10
2017-06-04T03:21:39.260Z,1006.11
2017-06-04T03:22:26.882Z,1006.04
2017-06-04T03:23:15.929Z,1006.08
2017-06-04T03:24:04.571Z,1006.05
2017-06-04T03:24:52.083Z,1006.06
2017-06-04T03:25:40.095Z,1006.08
2017-06-04T03:26:29.101Z,1006.05
2017-06-04T03:27:17.210Z,1006.11
2017-06-04T03:28:05.226Z,1006.06
2017-06-04T03:28:53.268Z,1006.09
2017-06-04T03:29:41.564Z,1006.08
2017-06-04T03:30:29.369Z,1006.06
2017-06-04T03:31:17.383Z,1006.05
2017-06-04T03:32:05.453Z,1006.08
2017-06-04T03:32:54.486Z,1006.06
2017-06-04T03:33:42.674Z,1006.03
2017-06-04T03:34:31.829Z,1006.07
2017-06-04T03:35:19.656Z,1006.07
2017-06-04T03:36:07.697Z,1006.08
2017-06-04T03:36:56.684Z,1006.08
2017-06-04T03:37:44.810Z,1006.10
2017-06-04T03:38:34.114Z,1006.11
2017-06-04T03:39:21.866Z,1006.10
2017-06-04T03:40:09.918Z,1006.09
2017-06-04T03:40:58.980Z,1006.11
2017-06-04T03:41:46.974Z,1006.12
2017-06-04T03:42:35.528Z,1006.13
2017-06-04T03:43:24.068Z,1006.11
2017-06-04T03:44:12.340Z,1006.14
2017-06-04T03:45:01.307Z,1006.13
2017-06-04T03:45:50.368Z,1006.15
2017-06-04T03:46:45.580Z,1006.15
2017-06-04T03:47:39.713Z,1006.16
2017-06-04T03:48:34.403Z,1006.16
2017-06-04T03:49:28.584Z,1006.23
2017-06-04T03:50:22.542Z,1006.22
2017-06-04T03:51:17.454Z,1006.20
2017-06-04T03:52:11.503Z,1006.18
2017-06-04T03:53:00.507Z,1006.18
2017-06-04T03:53:54.673Z,1006.22
2017-06-04T03:54:43.584Z,1006.24
2017-06-04T03:55:32.678Z,1006.23
2017-06-04T03:56:26.698Z,1006.20
2017-06-04T03:57:21.045Z,1006.25
2017-06-04T03:58:09.789Z,1006.25
2017-06-04T03:58:58.001Z,1006.23
2017-06-04T03:59:52.072Z,1006.24
2017-06-04T04:00:51.888Z,1006.19
2017-06-04T04:01:46.927Z,1006.20
2017-06-04T04:02:42.094Z,1006.20
2017-06-04T04:03:42.013Z,1006.23
2017-06-04T04:04:37.284Z,1006.25
2017-06-04T04:05:32.097Z,1006.26
2017-06-04T04:06:26.336Z,1006.30
2017-06-04T04:07:27.160Z,1006.27
2017-06-04T04:08:16.685Z,1006.26
2017-06-04T04:09:10.283Z,1006.25
2017-06-04T04:10:10.305Z,1006.32
2017-06-04T04:11:10.311Z,1006.36
2017-06-04T04:11:59.385Z,1006.34
2017-06-04T04:12:53.395Z,1006.37
2017-06-04T04:13:53.923Z,1006.31
2017-06-04T04:14:53.493Z,1006.29
2017-06-04T04:15:53.506Z,1006.28
2017-06-04T04:16:48.575Z,1006.32
2017-06-04T04:17:43.570Z,1006.28
2017-06-04T04:18:43.657Z,1006.31
2017-06-04T04:19:37.653Z,1006.30
2017-06-04T04:20:32.700Z,1006.29
2017-06-04T04:21:20.802Z,1006.31
2017-06-04T04:22:08.780Z,1006.28
2017-06-04T04:22:57.062Z,1006.30
2017-06-04T04:23:51.072Z,1006.33
2017-06-04T04:24:38.978Z,1006.33
2017-06-04T04:25:27.995Z,1006.32
2017-06-04T04:26:16.006Z,1006.33
2017-06-04T04:27:05.087Z,1006.31
2017-06-04T04:28:00.116Z,1006.32
2017-06-04T04:28:54.143Z,1006.32
2017-06-04T04:29:55.287Z,1006.32
2017-06-04T04:30:50.271Z,1006.35
2017-06-04T04:31:50.260Z,1006.31
2017-06-04T04:32:50.644Z,1006.28
2017-06-04T04:33:50.326Z,1006.31
2017-06-04T04:34:50.400Z,1006.26
2017-06-04T04:35:39.396Z,1006.27
2017-06-04T04:36:34.823Z,1006.30
2017-06-04T04:37:23.494Z,1006.30
2017-06-04T04:38:12.581Z,1006.31
2017-06-04T04:39:06.585Z,1006.33
2017-06-04T04:40:06.664Z,1006.33
2017-06-04T04:41:01.905Z,1006.34
2017-06-04T04:42:02.694Z,1006.34
2017-06-04T04:43:02.887Z,1006.34
2017-06-04T04:43:57.807Z,1006.36
2017-06-04T04:44:52.945Z,1006.37
2017-06-04T04:45:46.904Z,1006.37
2017-06-04T04:46:35.241Z,1006.37
2017-06-04T04:47:28.921Z,1006.35
2017-06-04T04:48:23.251Z,1006.36
2017-06-04T04:49:17.005Z,1006.38
2017-06-04T04:50:17.080Z,1006.40
2017-06-04T04:51:11.115Z,1006.40
2017-06-04T04:52:17.182Z,1006.40
2017-06-04T04:53:11.184Z,1006.37
2017-06-04T04:54:12.189Z,1006.36
2017-06-04T04:55:12.253Z,1006.35
2017-06-04T04:56:07.286Z,1006.41
2017-06-04T04:57:07.459Z,1006.39
2017-06-04T04:58:07.370Z,1006.41
2017-06-04T04:59:07.693Z,1006.43
2017-06-04T05:00:01.441Z,1006.41
2017-06-04T05:01:01.555Z,1006.45
2017-06-04T05:01:56.491Z,1006.43
2017-06-04T05:02:51.571Z,1006.48
2017-06-04T05:03:40.078Z,1006.48
2017-06-04T05:04:39.677Z,1006.50
2017-06-04T05:05:27.689Z,1006.48
2017-06-04T05:06:27.705Z,1006.52
2017-06-04T05:07:22.785Z,1006.52
2017-06-04T05:08:16.808Z,1006.51
2017-06-04T05:09:10.857Z,1006.53
2017-06-04T05:10:04.894Z,1006.53
2017-06-04T05:11:05.920Z,1006.54
2017-06-04T05:12:07.006Z,1006.57
2017-06-04T05:13:07.011Z,1006.57
2017-06-04T05:14:02.073Z,1006.56
2017-06-04T05:15:02.135Z,1006.59
2017-06-04T05:15:57.100Z,1006.62
2017-06-04T05:16:52.479Z,1006.62
2017-06-04T05:17:46.369Z,1006.62
2017-06-04T05:18:46.283Z,1006.63
2017-06-04T05:19:40.260Z,1006.63
2017-06-04T05:20:29.405Z,1006.63
2017-06-04T05:21:23.692Z,1006.64
2017-06-04T05:22:11.407Z,1006.69
2017-06-04T05:23:05.613Z,1006.74
2017-06-04T05:23:59.927Z,1006.75
2017-06-04T05:24:54.539Z,1006.80
2017-06-04T05:25:42.700Z,1006.82
2017-06-04T05:26:36.646Z,1006.84
2017-06-04T05:27:24.682Z,1006.86
2017-06-04T05:28:14.174Z,1006.82
2017-06-04T05:29:13.820Z,1006.82
2017-06-04T05:30:09.118Z,1006.75
2017-06-04T05:30:58.201Z,1006.74
2017-06-04T05:31:46.917Z,1006.68
2017-06-04T05:32:47.124Z,1006.62
2017-06-04T05:33:42.278Z,1006.55
2017-06-04T05:34:35.996Z,1006.52
2017-06-04T05:35:25.077Z,1006.54
2017-06-04T05:36:20.507Z,1006.60
2017-06-04T05:37:15.510Z,1006.67
2017-06-04T05:38:09.524Z,1006.73
2017-06-04T05:38:57.240Z,1006.77
2017-06-04T05:39:45.667Z,1006.84
2017-06-04T05:40:46.650Z,1006.92
2017-06-04T05:41:46.718Z,1006.91
2017-06-04T05:42:41.853Z,1006.93
2017-06-04T05:43:35.807Z,1006.92
2017-06-04T05:44:35.887Z,1006.97
2017-06-04T05:45:23.863Z,1007.01
2017-06-04T05:46:11.903Z,1007.02
2017-06-04T05:47:06.008Z,1007.03
2017-06-04T05:48:07.051Z,1007.07
2017-06-04T05:49:08.064Z,1007.07
2017-06-04T05:50:02.056Z,1007.04
2017-06-04T05:50:51.096Z,1007.06
2017-06-04T05:51:46.108Z,1007.07
2017-06-04T05:52:41.380Z,1007.05
2017-06-04T05:53:35.277Z,1007.06
2017-06-04T05:54:29.272Z,1007.00
2017-06-04T05:55:29.351Z,1006.95
2017-06-04T05:56:24.390Z,1006.95
2017-06-04T05:57:24.465Z,1006.91
2017-06-04T05:58:25.423Z,1006.94
2017-06-04T05:59:26.497Z,1006.95
2017-06-04T06:00:20.694Z,1006.98
2017-06-04T06:01:20.764Z,1006.98
2017-06-04T06:02:15.652Z,1006.98
2017-06-04T06:03:10.674Z,1007.05
2017-06-04T06:03:58.735Z,1007.03
2017-06-04T06:04:53.755Z,1007.08
2017-06-04T06:05:41.878Z,1007.07
2017-06-04T06:06:35.868Z,1007.09
2017-06-04T06:07:29.911Z,1007.05
2017-06-04T06:08:18.987Z,1007.08
2017-06-04T06:09:07.076Z,1007.04
2017-06-04T06:10:01.057Z,1007.05
2017-06-04T06:10:48.844Z,1007.06
2017-06-04T06:11:42.972Z,1007.06
2017-06-04T06:12:37.874Z,1007.08
2017-06-04T06:13:27.199Z,1007.09
2017-06-04T06:14:16.319Z,1007.10
2017-06-04T06:15:04.351Z,1007.12
2017-06-04T06:15:53.402Z,1007.17
2017-06-04T06:16:53.437Z,1007.22
2017-06-04T06:17:47.481Z,1007.20
2017-06-04T06:18:48.513Z,1007.27
2017-06-04T06:19:49.539Z,1007.31
2017-06-04T06:20:44.542Z,1007.25
2017-06-04T06:21:39.591Z,1007.26
2017-06-04T06:22:33.687Z,1007.25
2017-06-04T06:23:33.755Z,1007.30
2017-06-04T06:24:28.782Z,1007.32
2017-06-04T06:25:22.836Z,1007.31
2017-06-04T06:26:17.491Z,1007.32
2017-06-04T06:27:06.986Z,1007.29
2017-06-04T06:27:54.908Z,1007.29
2017-06-04T06:28:44.058Z,1007.32
2017-06-04T06:29:32.018Z,1007.27
2017-06-04T06:30:33.102Z,1007.33
2017-06-04T06:31:21.135Z,1007.34
2017-06-04T06:32:15.165Z,1007.36
2017-06-04T06:33:09.918Z,1007.38
2017-06-04T06:33:59.041Z,1007.37
2017-06-04T06:34:48.400Z,1007.35
2017-06-04T06:35:36.395Z,1007.37
2017-06-04T06:36:30.469Z,1007.38
2017-06-04T06:37:30.420Z,1007.45
2017-06-04T06:38:18.532Z,1007.42
2017-06-04T06:39:12.540Z,1007.42
2017-06-04T06:40:06.623Z,1007.44
2017-06-04T06:40:55.781Z,1007.47
2017-06-04T06:41:50.704Z,1007.47
2017-06-04T06:42:50.772Z,1007.49
2017-06-04T06:43:50.871Z,1007.54
2017-06-04T06:44:45.853Z,1007.55
2017-06-04T06:45:39.869Z,1007.55
2017-06-04T06:46:33.920Z,1007.59
2017-06-04T06:47:34.953Z,1007.55
2017-06-04T06:48:29.031Z,1007.54
2017-06-04T06:49:23.990Z,1007.52
2017-06-04T06:50:18.092Z,1007.53
2017-06-04T06:51:11.887Z,1007.51
2017-06-04T06:52:06.254Z,1007.52
2017-06-04T06:53:06.332Z,1007.58
2017-06-04T06:54:00.348Z,1007.58
2017-06-04T06:54:54.198Z,1007.55
2017-06-04T06:55:49.354Z,1007.55
2017-06-04T06:56:38.107Z,1007.59
2017-06-04T06:57:32.188Z,1007.52
2017-06-04T06:58:27.527Z,1007.53
2017-06-04T06:59:27.527Z,1007.55
2017-06-04T07:00:22.586Z,1007.47
2017-06-04T07:01:17.624Z,1007.52
2017-06-04T07:02:17.798Z,1007.55
2017-06-04T07:03:11.832Z,1007.53
2017-06-04T07:04:00.849Z,1007.55
2017-06-04T07:05:00.908Z,1007.60
2017-06-04T07:05:48.858Z,1007.58
2017-06-04T07:06:48.617Z,1007.61
2017-06-04T07:07:38.031Z,1007.60
2017-06-04T07:08:31.761Z,1007.59
2017-06-04T07:09:27.125Z,1007.65
2017-06-04T07:10:27.009Z,1007.70
2017-06-04T07:11:20.948Z,1007.67
2017-06-04T07:12:21.084Z,1007.71
2017-06-04T07:13:10.278Z,1007.71
2017-06-04T07:14:04.413Z,1007.69
2017-06-04T07:14:58.417Z,1007.69
2017-06-04T07:15:52.449Z,1007.74
2017-06-04T07:16:47.405Z,1007.69
2017-06-04T07:17:47.448Z,1007.73
2017-06-04T07:18:42.560Z,1007.67
2017-06-04T07:19:30.653Z,1007.62
2017-06-04T07:20:31.630Z,1007.64
2017-06-04T07:21:31.659Z,1007.64
2017-06-04T07:22:26.731Z,1007.62
2017-06-04T07:23:20.871Z,1007.67
2017-06-04T07:24:15.574Z,1007.69
2017-06-04T07:25:04.941Z,1007.65
2017-06-04T07:25:58.587Z,1007.69
2017-06-04T07:26:54.051Z,1007.72
2017-06-04T07:27:48.088Z,1007.73
2017-06-04T07:28:48.174Z,1007.73
2017-06-04T07:29:42.190Z,1007.77
2017-06-04T07:30:37.357Z,1007.80
2017-06-04T07:31:26.340Z,1007.77
2017-06-04T07:32:26.306Z,1007.77
2017-06-04T07:33:15.388Z,1007.82
2017-06-04T07:34:10.480Z,1007.79
2017-06-04T07:35:10.559Z,1007.82
2017-06-04T07:35:58.615Z,1007.81
2017-06-04T07:36:46.620Z,1007.81
2017-06-04T07:37:46.700Z,1007.86
2017-06-04T07:38:40.765Z,1007.83
2017-06-04T07:39:40.779Z,1007.81
2017-06-04T07:40:29.816Z,1007.72
2017-06-04T07:41:23.927Z,1007.77
2017-06-04T07:42:23.938Z,1007.78
2017-06-04T07:43:19.008Z,1007.78
2017-06-04T07:44:13.023Z,1007.77
2017-06-04T07:45:13.094Z,1007.79
2017-06-04T07:46:07.198Z,1007.76
2017-06-04T07:47:01.289Z,1007.75
2017-06-04T07:47:55.252Z,1007.73
2017-06-04T07:48:55.332Z,1007.75
2017-06-04T07:49:49.398Z,1007.76
2017-06-04T07:50:49.446Z,1007.68
2017-06-04T07:51:37.492Z,1007.66
2017-06-04T07:52:37.484Z,1007.68
2017-06-04T07:53:32.523Z,1007.70
2017-06-04T07:54:21.689Z,1007.68
2017-06-04T07:55:21.694Z,1007.71
2017-06-04T07:56:15.750Z,1007.73
2017-06-04T07:57:09.807Z,1007.77
2017-06-04T07:58:04.888Z,1007.73
2017-06-04T07:58:58.936Z,1007.69
2017-06-04T07:59:52.995Z,1007.72
2017-06-04T08:00:47.068Z,1007.71
2017-06-04T08:01:36.097Z,1007.72
2017-06-04T08:02:25.193Z,1007.75
2017-06-04T08:03:25.200Z,1007.75
2017-06-04T08:04:19.239Z,1007.80
2017-06-04T08:05:19.300Z,1007.89
2017-06-04T08:06:07.344Z,1007.85
2017-06-04T08:06:56.432Z,1007.84
2017-06-04T08:07:51.488Z,1007.89
2017-06-04T08:08:46.563Z,1007.91
2017-06-04T08:09:35.616Z,1007.88
2017-06-04T08:10:29.636Z,1007.83
2017-06-04T08:11:23.717Z,1007.84
2017-06-04T08:12:17.757Z,1007.82
2017-06-04T08:13:06.849Z,1007.82
2017-06-04T08:13:55.912Z,1007.77
2017-06-04T08:14:49.931Z,1007.76
2017-06-04T08:15:44.987Z,1007.81
2017-06-04T08:16:34.058Z,1007.86
2017-06-04T08:17:23.108Z,1007.93
2017-06-04T08:18:12.193Z,1007.97
2017-06-04T08:19:01.393Z,1007.92
2017-06-04T08:19:50.292Z,1007.87
2017-06-04T08:20:39.355Z,1007.84
2017-06-04T08:21:33.387Z,1007.74
2017-06-04T08:22:27.476Z,1007.75
2017-06-04T08:23:21.564Z,1007.80
2017-06-04T08:24:10.605Z,1007.97
2017-06-04T08:24:58.640Z,1007.92
2017-06-04T08:25:53.720Z,1007.88
2017-06-04T08:26:42.736Z,1007.97
2017-06-04T08:27:31.839Z,1007.75
2017-06-04T08:28:26.847Z,1007.77
2017-06-04T08:29:15.956Z,1007.93
2017-06-04T08:30:04.991Z,1008.08
2017-06-04T08:31:05.095Z,1008.02
2017-06-04T08:31:59.106Z,1007.78
2017-06-04T08:32:54.149Z,1007.73
2017-06-04T08:33:49.247Z,1007.90
2017-06-04T08:34:38.436Z,1008.14
2017-06-04T08:35:32.358Z,1008.14
2017-06-04T08:36:26.371Z,1008.02
2017-06-04T08:37:15.459Z,1007.91
2017-06-04T08:38:09.507Z,1007.80
2017-06-04T08:38:58.577Z,1007.71
2017-06-04T08:39:52.621Z,1007.70
2017-06-04T08:40:41.749Z,1007.78
2017-06-04T08:41:29.756Z,1008.00
2017-06-04T08:42:24.842Z,1007.88
2017-06-04T08:43:18.856Z,1007.90
2017-06-04T08:44:12.923Z,1007.92
2017-06-04T08:45:06.995Z,1008.05
2017-06-04T08:46:01.053Z,1008.16
2017-06-04T08:46:55.105Z,1008.17
2017-06-04T08:47:50.138Z,1008.11
2017-06-04T08:48:44.202Z,1007.97
2017-06-04T08:49:38.313Z,1007.82
2017-06-04T08:50:33.465Z,1007.86
2017-06-04T08:51:27.427Z,1007.99
2017-06-04T08:52:22.434Z,1008.18
2017-06-04T08:53:16.544Z,1008.05
2017-06-04T08:54:04.589Z,1007.96
2017-06-04T08:55:04.603Z,1007.97
2017-06-04T08:55:52.994Z,1007.89
2017-06-04T08:56:46.703Z,1008.12
2017-06-04T08:57:41.808Z,1007.80
2017-06-04T08:58:35.891Z,1007.85
2017-06-04T08:59:30.923Z,1008.08
2017-06-04T09:00:25.006Z,1008.16
2017-06-04T09:01:19.059Z,1008.12
2017-06-04T09:02:13.092Z,1008.19
2017-06-04T09:03:02.139Z,1008.28
2017-06-04T09:03:51.262Z,1008.29
2017-06-04T09:04:40.258Z,1008.26
2017-06-04T09:05:35.355Z,1008.23
2017-06-04T09:06:29.542Z,1008.14
2017-06-04T09:07:23.472Z,1008.16
2017-06-04T09:08:17.543Z,1007.86
2017-06-04T09:09:05.583Z,1007.81
2017-06-04T09:09:59.600Z,1007.84
2017-06-04T09:10:53.698Z,1007.92
2017-06-04T09:11:47.770Z,1007.94
2017-06-04T09:12:41.811Z,1008.00
2017-06-04T09:13:35.832Z,1007.99
2017-06-04T09:14:24.904Z,1008.02
2017-06-04T09:15:19.942Z,1008.00
2017-06-04T09:16:20.067Z,1008.23
2017-06-04T09:17:15.100Z,1008.21
2017-06-04T09:18:04.114Z,1008.23
2017-06-04T09:19:04.202Z,1008.22
2017-06-04T09:19:53.249Z,1008.28
2017-06-04T09:20:47.274Z,1008.40
2017-06-04T09:21:41.394Z,1008.42
2017-06-04T09:22:29.604Z,1008.41
2017-06-04T09:23:24.465Z,1008.37
2017-06-04T09:24:19.568Z,1008.27
2017-06-04T09:25:14.595Z,1008.13
2017-06-04T09:26:14.703Z,1007.88
2017-06-04T09:27:03.686Z,1007.85
2017-06-04T09:27:57.798Z,1007.84
2017-06-04T09:28:46.851Z,1007.95
2017-06-04T09:29:41.889Z,1008.25
2017-06-04T09:30:35.948Z,1008.32
2017-06-04T09:31:24.034Z,1008.02
2017-06-04T09:32:19.074Z,1008.13
2017-06-04T09:33:13.123Z,1008.37
2017-06-04T09:34:02.206Z,1008.22
2017-06-04T09:34:56.226Z,1008.34
2017-06-04T09:35:51.299Z,1008.30
2017-06-04T09:36:40.381Z,1008.33
2017-06-04T09:37:35.433Z,1008.28
2017-06-04T09:38:24.719Z,1008.30
2017-06-04T09:39:18.537Z,1008.38
2017-06-04T09:40:18.643Z,1008.21
2017-06-04T09:41:06.690Z,1008.61
2017-06-04T09:42:06.716Z,1008.57
2017-06-04T09:43:00.806Z,1008.42
2017-06-04T09:43:54.884Z,1008.41
2017-06-04T09:44:48.887Z,1008.18
2017-06-04T09:45:42.982Z,1008.26
2017-06-04T09:46:37.057Z,1008.42
2017-06-04T09:47:37.129Z,1008.51
2017-06-04T09:48:31.187Z,1008.53
2017-06-04T09:49:19.195Z,1008.51
2017-06-04T09:50:14.272Z,1008.44
2017-06-04T09:51:08.347Z,1008.50
2017-06-04T09:52:03.398Z,1008.51
2017-06-04T09:52:57.434Z,1008.44
2017-06-04T09:53:51.527Z,1008.48
2017-06-04T09:54:45.634Z,1008.58
2017-06-04T09:55:45.625Z,1008.63
2017-06-04T09:56:34.722Z,1008.84
2017-06-04T09:57:23.728Z,1008.86
2017-06-04T09:58:11.815Z,1008.81
2017-06-04T09:59:00.882Z,1008.62
2017-06-04T09:59:54.913Z,1008.60
2017-06-04T10:00:48.960Z,1008.61
2017-06-04T10:01:48.961Z,1008.54
2017-06-04T10:02:43.085Z,1008.68
2017-06-04T10:03:37.183Z,1008.72
2017-06-04T10:04:31.212Z,1008.62
2017-06-04T10:05:26.255Z,1008.68
2017-06-04T10:06:21.311Z,1008.31
2017-06-04T10:07:21.328Z,1008.42
2017-06-04T10:08:15.423Z,1008.75
2017-06-04T10:09:04.520Z,1008.85
2017-06-04T10:09:58.599Z,1008.71
2017-06-04T10:10:52.699Z,1008.52
2017-06-04T10:11:46.716Z,1008.49
2017-06-04T10:12:35.718Z,1008.51
2017-06-04T10:13:23.830Z,1008.54
2017-06-04T10:14:11.870Z,1008.26
2017-06-04T10:14:59.937Z,1008.32
2017-06-04T10:15:53.987Z,1008.25
2017-06-04T10:16:49.031Z,1008.29
2017-06-04T10:17:44.138Z,1008.21
2017-06-04T10:18:38.166Z,1008.20
2017-06-04T10:19:26.231Z,1008.26
2017-06-04T10:20:21.262Z,1008.22
2017-06-04T10:21:15.338Z,1008.30
2017-06-04T10:22:15.399Z,1008.24
2017-06-04T10:23:10.422Z,1008.49
2017-06-04T10:24:05.515Z,1008.43
2017-06-04T10:24:54.622Z,1008.40
2017-06-04T10:25:43.612Z,1008.45
2017-06-04T10:26:37.729Z,1008.42
2017-06-04T10:27:26.714Z,1008.36
2017-06-04T10:28:20.792Z,1008.35
2017-06-04T10:29:08.894Z,1008.31
2017-06-04T10:30:02.938Z,1008.32
2017-06-04T10:30:56.952Z,1008.34
2017-06-04T10:31:57.086Z,1008.41
2017-06-04T10:32:45.182Z,1008.39
2017-06-04T10:33:40.203Z,1008.35
2017-06-04T10:34:34.283Z,1008.36
2017-06-04T10:35:28.336Z,1008.15
2017-06-04T10:36:23.463Z,1008.33
2017-06-04T10:37:18.472Z,1008.36
2017-06-04T10:38:12.517Z,1008.43
2017-06-04T10:39:00.604Z,1008.34
2017-06-04T10:39:55.614Z,1008.40
2017-06-04T10:40:55.721Z,1008.37
2017-06-04T10:41:50.760Z,1008.35
2017-06-04T10:42:38.892Z,1008.28
2017-06-04T10:43:27.896Z,1008.38
2017-06-04T10:44:15.941Z,1008.42
2017-06-04T10:45:05.028Z,1008.47
2017-06-04T10:46:00.123Z,1008.46
2017-06-04T10:46:48.161Z,1008.07
2017-06-04T10:47:42.238Z,1008.36
2017-06-04T10:48:31.292Z,1008.47